Hovedside
METAR-TAF:

METAR-TAF

Lufthavner :

Lewiston-Nez Perce County Airport

Lewiston, Idaho, USA

breddegrad: 46-22-29N, lengdegrad: 117-00-52W, høyde over havet: 438 m

Gjeldene værobservasjon

Denne rapporten ble laget for 1 time og 2 minutter siden, klokken 15:56 UTC
Vind 3 kt fra skiftende retning
Temperatur 7°C
Luftfuktighet 70%
Trykk 1029 hPa
Sikt: 16.1 km
Skyfri himmel

METAR: KLWS 191556Z VRB03KT 10SM CLR 07/02 A3038 RMK AO2 SLP292 T00720017

Tid: 09:58 (16:58 UTC)

Varsel

Denne rapporten ble laget for 5 timer og 29 minutter siden, klokken 11:29 UTC
Varsel gyldig fra 19. klokken 12 UTC til 20. klokken 12 UTC
Vind 3 kt fra skiftende retning
Sikt: 10 km
Få skyer i en høyde av 25000 ft

TAF: KLWS 191129Z 1912/2012 VRB03KT P6SM FEW250

Værobservasjoner og værvarsel for over 4000 flyplasser (METAR- og TAF-rapporter).

Tilgjengelige stasjoner er representert av de røde og gule prikkene på kartet.

Hold musepekeren over prikken for å se navnet på stasjonen.

Klikk så for å se værobservasjoner og -varsler.

For å forandre kartet kan du klikke på den grønne knappen med svart kryss for å zoome inn, på den grønne knappen med strek for å zoome ut, eller på de grønne pilene for å se tilstøtende kart.


METAR-TAF: